createdAt,value
2022-08-17T00:01:55.878Z,73.23
2022-08-17T00:04:50.476Z,73.73
2022-08-17T00:07:38.715Z,74.69
2022-08-17T00:10:26.818Z,74.53
2022-08-17T00:13:17.547Z,75.07
2022-08-17T00:16:08.878Z,75.71
2022-08-17T00:19:07.062Z,75.60
2022-08-17T00:22:31.815Z,75.66
2022-08-17T00:25:13.205Z,76.80
2022-08-17T00:28:02.028Z,76.83
2022-08-17T00:30:52.868Z,77.66
2022-08-17T00:33:43.885Z,77.18
2022-08-17T00:36:31.971Z,76.67
2022-08-17T00:39:21.478Z,76.67
2022-08-17T00:42:14.697Z,76.99
2022-08-17T00:45:04.397Z,76.86
2022-08-17T00:47:52.467Z,76.74
2022-08-17T00:50:44.699Z,76.57
2022-08-17T00:53:34.662Z,76.23
2022-08-17T00:56:30.674Z,77.16
2022-08-17T00:59:21.948Z,76.82
2022-08-17T01:02:13.435Z,76.80
2022-08-17T01:05:01.772Z,76.94
2022-08-17T01:07:51.176Z,76.89
2022-08-17T01:10:59.917Z,77.46
2022-08-17T01:13:51.950Z,76.67
2022-08-17T01:16:40.393Z,76.43
2022-08-17T01:19:31.537Z,76.33
2022-08-17T01:22:22.675Z,76.85
2022-08-17T01:25:12.680Z,77.95
2022-08-17T01:28:01.580Z,78.81
2022-08-17T01:30:57.791Z,78.68
2022-08-17T01:33:47.454Z,79.36
2022-08-17T01:36:36.000Z,79.23
2022-08-17T01:39:30.821Z,78.70
2022-08-17T01:42:23.683Z,79.07
2022-08-17T01:45:14.639Z,79.07
2022-08-17T01:48:02.751Z,77.88
2022-08-17T01:50:52.728Z,78.12
2022-08-17T01:53:46.167Z,76.93
2022-08-17T01:56:37.686Z,78.06
2022-08-17T01:59:25.788Z,77.16
2022-08-17T02:02:30.996Z,76.64
2022-08-17T02:05:19.948Z,76.72
2022-08-17T02:08:08.244Z,77.01
2022-08-17T02:11:11.705Z,75.97
2022-08-17T02:14:03.383Z,75.62
2022-08-17T02:16:52.475Z,75.19
2022-08-17T02:19:40.430Z,74.58
2022-08-17T02:22:29.775Z,74.23
2022-08-17T02:25:20.909Z,73.38
2022-08-17T02:28:12.458Z,73.27
2022-08-17T02:31:07.743Z,74.62
2022-08-17T02:34:04.235Z,75.35
2022-08-17T02:36:54.060Z,77.72
2022-08-17T02:39:42.107Z,78.95
2022-08-17T02:42:33.765Z,80.15
2022-08-17T02:45:24.639Z,83.26
2022-08-17T02:48:13.966Z,85.34
2022-08-17T02:51:19.176Z,86.79
2022-08-17T02:54:41.727Z,89.46
2022-08-17T02:57:15.347Z,89.91
2022-08-17T03:00:03.718Z,90.23
2022-08-17T03:02:52.231Z,92.46
2022-08-17T03:05:41.771Z,94.19
2022-08-17T03:08:30.102Z,95.20
2022-08-17T03:11:18.100Z,97.68
2022-08-17T03:14:06.193Z,99.59
2022-08-17T03:16:54.607Z,99.02
2022-08-17T03:19:43.077Z,100.00
2022-08-17T03:22:38.316Z,100.00
2022-08-17T03:25:29.035Z,100.00
2022-08-17T03:28:17.228Z,100.00
2022-08-17T03:31:05.851Z,100.00
2022-08-17T03:33:53.867Z,100.00
2022-08-17T03:36:41.979Z,100.00
2022-08-17T03:39:31.469Z,100.00
2022-08-17T03:42:32.201Z,100.00
2022-08-17T03:45:43.201Z,100.00
2022-08-17T03:48:49.448Z,100.00
2022-08-17T03:51:55.045Z,100.00
2022-08-17T03:55:03.161Z,100.00
2022-08-17T03:57:51.235Z,100.00
2022-08-17T04:00:45.664Z,100.00
2022-08-17T04:03:33.901Z,100.00
2022-08-17T04:06:22.589Z,100.00
2022-08-17T04:09:11.799Z,100.00
2022-08-17T04:12:04.860Z,100.00
2022-08-17T04:14:54.902Z,100.00
2022-08-17T04:17:44.193Z,100.00
2022-08-17T04:20:32.314Z,100.00
2022-08-17T04:23:20.968Z,100.00
2022-08-17T04:26:09.095Z,100.00
2022-08-17T04:28:59.516Z,98.41
2022-08-17T04:31:47.959Z,100.00
2022-08-17T04:34:36.371Z,100.00
2022-08-17T04:37:24.373Z,100.00
2022-08-17T04:40:30.651Z,100.00
2022-08-17T04:43:21.088Z,100.00
2022-08-17T04:46:12.013Z,100.00
2022-08-17T04:49:01.372Z,100.00
2022-08-17T04:51:54.692Z,100.00
2022-08-17T04:54:44.897Z,100.00
2022-08-17T04:57:38.480Z,100.00
2022-08-17T05:00:28.769Z,100.00
2022-08-17T05:03:18.148Z,100.00
2022-08-17T05:06:06.610Z,100.00
2022-08-17T05:08:55.689Z,100.00
2022-08-17T05:11:45.049Z,100.00
2022-08-17T05:14:33.974Z,100.00
2022-08-17T05:17:22.094Z,100.00
2022-08-17T05:20:12.241Z,99.93
2022-08-17T05:23:04.491Z,98.57
2022-08-17T05:25:56.288Z,98.93
2022-08-17T05:28:44.372Z,98.68
2022-08-17T05:31:34.056Z,98.59
2022-08-17T05:34:22.748Z,96.64
2022-08-17T05:37:12.138Z,97.96
2022-08-17T05:40:00.409Z,95.81
2022-08-17T05:42:48.658Z,97.20
2022-08-17T05:45:55.907Z,94.53
2022-08-17T05:48:47.320Z,95.10
2022-08-17T05:52:09.118Z,96.02
2022-08-17T05:55:11.939Z,96.80
2022-08-17T05:58:14.596Z,97.27
2022-08-17T06:01:08.641Z,96.50
2022-08-17T06:04:05.363Z,96.08
2022-08-17T06:07:00.328Z,97.24
2022-08-17T06:09:54.517Z,95.63
2022-08-17T06:12:56.975Z,94.26
2022-08-17T06:18:47.178Z,89.37
2022-08-17T06:21:39.000Z,91.08
2022-08-17T06:24:34.103Z,89.87
2022-08-17T06:27:30.191Z,90.08
2022-08-17T06:30:24.650Z,91.48
2022-08-17T06:33:21.796Z,90.94
2022-08-17T06:36:26.498Z,88.22
2022-08-17T06:39:26.536Z,85.35
2022-08-17T06:43:06.180Z,80.64
2022-08-17T06:45:40.011Z,73.94
2022-08-17T06:48:38.689Z,73.20
2022-08-17T06:51:31.696Z,72.10
2022-08-17T06:54:27.335Z,71.84
2022-08-17T06:57:20.018Z,69.94
2022-08-17T07:00:13.739Z,69.00
2022-08-17T07:03:11.097Z,68.71
2022-08-17T07:06:02.018Z,69.09
2022-08-17T07:08:54.911Z,72.93
2022-08-17T07:11:52.841Z,73.49
2022-08-17T07:14:51.452Z,75.70
2022-08-17T07:17:47.272Z,73.51
2022-08-17T07:20:43.313Z,75.29
2022-08-17T07:23:42.928Z,72.97
2022-08-17T07:26:30.969Z,72.20
2022-08-17T07:29:20.070Z,71.07
2022-08-17T07:32:09.487Z,73.94
2022-08-17T07:35:11.143Z,72.34
2022-08-17T07:38:24.183Z,75.11
2022-08-17T07:41:14.616Z,76.28
2022-08-17T07:44:02.871Z,73.61
2022-08-17T07:47:22.665Z,72.85
2022-08-17T07:50:27.411Z,70.41
2022-08-17T07:53:23.196Z,72.00
2022-08-17T07:56:11.289Z,71.74
2022-08-17T07:59:08.478Z,72.68
2022-08-17T08:02:26.449Z,72.01
2022-08-17T08:05:44.284Z,69.59
2022-08-17T08:08:37.811Z,70.14
2022-08-17T08:11:35.482Z,70.00
2022-08-17T08:14:29.285Z,68.43
2022-08-17T08:17:25.240Z,65.65
2022-08-17T08:20:37.761Z,63.92
2022-08-17T08:23:37.088Z,62.00
2022-08-17T08:26:32.672Z,62.02
2022-08-17T08:29:30.608Z,64.66
2022-08-17T08:32:29.160Z,65.33
2022-08-17T08:35:26.679Z,66.18
2022-08-17T08:38:28.191Z,69.37
2022-08-17T08:41:30.402Z,71.17
2022-08-17T08:44:59.981Z,73.45
2022-08-17T08:48:05.903Z,74.17
2022-08-17T08:51:09.676Z,78.02
2022-08-17T08:54:07.691Z,77.74
2022-08-17T09:00:15.816Z,79.50
2022-08-17T09:03:36.731Z,77.84
2022-08-17T09:06:46.218Z,76.51
2022-08-17T09:09:47.400Z,73.01
2022-08-17T09:12:44.509Z,72.11
2022-08-17T09:15:39.805Z,72.61
2022-08-17T09:19:00.011Z,72.97
2022-08-17T09:21:47.922Z,69.06
2022-08-17T09:24:41.328Z,71.27
2022-08-17T09:27:34.364Z,66.94
2022-08-17T09:30:24.937Z,62.29
2022-08-17T09:33:16.935Z,60.18
2022-08-17T09:36:10.988Z,60.58
2022-08-17T09:39:03.472Z,63.15
2022-08-17T09:41:57.119Z,65.47
2022-08-17T09:44:53.125Z,64.78
2022-08-17T09:47:50.625Z,66.20
2022-08-17T09:51:04.074Z,62.64
2022-08-17T09:53:54.210Z,61.68
2022-08-17T09:57:18.101Z,60.23
2022-08-17T10:00:17.869Z,58.96
2022-08-17T10:03:22.020Z,58.64
2022-08-17T10:06:21.757Z,58.43
2022-08-17T10:09:18.725Z,56.72
2022-08-17T10:12:20.384Z,56.52
2022-08-17T10:15:23.351Z,56.08
2022-08-17T10:18:31.786Z,54.16
2022-08-17T10:21:41.463Z,53.50
2022-08-17T10:25:21.539Z,52.52
2022-08-17T10:28:00.753Z,52.90
2022-08-17T10:31:05.465Z,53.32
2022-08-17T10:34:21.623Z,54.76
2022-08-17T10:37:28.245Z,57.73
2022-08-17T10:40:24.613Z,63.73
2022-08-17T10:43:29.211Z,63.69
2022-08-17T10:46:30.967Z,63.72
2022-08-17T10:49:29.347Z,66.83
2022-08-17T10:52:48.646Z,73.87
2022-08-17T10:55:36.693Z,76.01
2022-08-17T10:58:28.457Z,78.26
2022-08-17T11:01:17.581Z,77.40
2022-08-17T11:04:21.614Z,75.50
2022-08-17T11:07:22.885Z,77.12
2022-08-17T11:10:26.533Z,73.99
2022-08-17T11:13:28.850Z,77.28
2022-08-17T11:16:41.205Z,73.07
2022-08-17T11:19:46.975Z,74.51
2022-08-17T11:23:14.572Z,71.55
2022-08-17T11:26:18.375Z,66.88
2022-08-17T11:29:17.417Z,63.79
2022-08-17T11:32:13.312Z,64.61
2022-08-17T11:35:11.947Z,61.48
2022-08-17T11:38:19.446Z,62.47
2022-08-17T11:41:19.710Z,59.16
2022-08-17T11:44:32.834Z,55.36
2022-08-17T11:48:02.559Z,54.38
2022-08-17T11:51:24.426Z,52.57
2022-08-17T11:54:38.239Z,50.09
2022-08-17T11:58:06.443Z,48.80
2022-08-17T12:00:57.836Z,47.53
2022-08-17T12:03:54.329Z,48.85
2022-08-17T12:06:49.257Z,48.77
2022-08-17T12:09:44.876Z,51.40
2022-08-17T12:12:35.690Z,51.44
2022-08-17T12:15:30.904Z,51.02
2022-08-17T12:18:24.469Z,50.67
2022-08-17T12:21:38.780Z,51.42
2022-08-17T12:24:47.137Z,50.70
2022-08-17T12:27:56.834Z,50.27
2022-08-17T12:30:52.140Z,50.47
2022-08-17T12:33:44.581Z,50.98
2022-08-17T12:36:33.854Z,50.90
2022-08-17T12:39:25.183Z,50.68
2022-08-17T12:42:23.169Z,51.18
2022-08-17T12:45:24.403Z,51.30
2022-08-17T12:48:14.546Z,50.93
2022-08-17T12:51:07.750Z,50.95
2022-08-17T12:53:56.271Z,50.14
2022-08-17T12:56:47.669Z,49.34
2022-08-17T12:59:42.609Z,48.88
2022-08-17T13:02:45.024Z,49.15
2022-08-17T13:05:35.951Z,48.23
2022-08-17T13:08:28.661Z,48.25
2022-08-17T13:11:21.694Z,47.86
2022-08-17T13:14:11.187Z,48.69
2022-08-17T13:17:08.343Z,48.00
2022-08-17T13:19:59.766Z,47.61
2022-08-17T13:22:54.474Z,47.72
2022-08-17T13:25:42.464Z,46.78
2022-08-17T13:28:36.220Z,45.12
2022-08-17T13:31:49.222Z,44.25
2022-08-17T13:34:51.363Z,43.79
2022-08-17T13:38:01.218Z,44.41
2022-08-17T13:40:53.056Z,43.20
2022-08-17T13:43:45.970Z,44.18
2022-08-17T13:46:35.322Z,43.19
2022-08-17T13:49:23.922Z,41.53
2022-08-17T13:52:32.982Z,40.92
2022-08-17T13:55:23.667Z,41.55
2022-08-17T13:58:11.707Z,41.88
2022-08-17T14:01:20.019Z,42.09
2022-08-17T14:04:10.725Z,41.81
2022-08-17T14:07:01.952Z,41.43
2022-08-17T14:09:54.726Z,41.60
2022-08-17T14:12:44.718Z,41.59
2022-08-17T14:15:55.427Z,42.39
2022-08-17T14:18:56.549Z,42.66
2022-08-17T14:21:47.465Z,42.88
2022-08-17T14:24:44.863Z,42.89
2022-08-17T14:27:51.935Z,42.66
2022-08-17T14:30:43.055Z,41.25
2022-08-17T14:33:31.164Z,40.85
2022-08-17T14:36:19.186Z,40.15
2022-08-17T14:39:07.296Z,40.16
2022-08-17T14:41:58.195Z,40.12
2022-08-17T14:44:47.565Z,40.35
2022-08-17T14:47:36.726Z,40.53
2022-08-17T14:50:24.759Z,41.64
2022-08-17T14:53:15.736Z,41.22
2022-08-17T14:56:04.146Z,41.44
2022-08-17T14:58:52.831Z,39.91
2022-08-17T15:01:42.250Z,39.09
2022-08-17T15:04:30.355Z,39.25
2022-08-17T15:07:19.048Z,41.03
2022-08-17T15:10:08.883Z,39.38
2022-08-17T15:12:58.263Z,38.89
2022-08-17T15:15:46.290Z,38.68
2022-08-17T15:18:36.066Z,39.41
2022-08-17T15:21:24.106Z,40.09
2022-08-17T15:24:12.069Z,40.10
2022-08-17T15:27:00.139Z,38.79
2022-08-17T15:29:48.120Z,39.17
2022-08-17T15:32:40.587Z,39.44
2022-08-17T15:35:32.574Z,39.18
2022-08-17T15:38:21.763Z,38.65
2022-08-17T15:41:14.924Z,39.17
2022-08-17T15:44:02.931Z,39.32
2022-08-17T15:46:51.227Z,39.80
2022-08-17T15:49:40.414Z,38.80
2022-08-17T15:52:30.697Z,35.77
2022-08-17T15:55:23.968Z,37.00
2022-08-17T15:58:12.664Z,36.20
2022-08-17T16:01:18.384Z,36.63
2022-08-17T16:04:26.810Z,36.34
2022-08-17T16:07:17.471Z,37.13
2022-08-17T16:10:07.764Z,37.32
2022-08-17T16:12:55.775Z,37.70
2022-08-17T16:15:43.864Z,38.35
2022-08-17T16:18:32.594Z,38.85
2022-08-17T16:21:27.038Z,38.40
2022-08-17T16:24:15.194Z,37.81
2022-08-17T16:27:12.590Z,38.36
2022-08-17T16:30:00.971Z,38.24
2022-08-17T16:32:51.620Z,38.04
2022-08-17T16:35:42.073Z,38.02
2022-08-17T16:38:30.152Z,37.10
2022-08-17T16:41:32.436Z,36.89
2022-08-17T16:44:22.793Z,37.70
2022-08-17T16:47:10.835Z,38.06
2022-08-17T16:49:59.057Z,38.59
2022-08-17T16:52:48.416Z,39.11
2022-08-17T16:55:36.653Z,38.82
2022-08-17T16:58:24.733Z,38.27
2022-08-17T17:01:15.760Z,39.01
2022-08-17T17:04:07.096Z,38.86
2022-08-17T17:07:03.859Z,39.19
2022-08-17T17:09:55.346Z,40.25
2022-08-17T17:13:01.985Z,41.63
2022-08-17T17:15:57.714Z,43.72
2022-08-17T17:18:59.870Z,42.41
2022-08-17T17:21:52.818Z,40.54
2022-08-17T17:24:50.292Z,43.30
2022-08-17T17:27:43.713Z,44.21
2022-08-17T17:30:43.601Z,46.74
2022-08-17T17:33:38.531Z,47.11
2022-08-17T17:36:35.557Z,47.83
2022-08-17T17:39:31.868Z,48.25
2022-08-17T17:42:23.220Z,49.21
2022-08-17T17:45:19.540Z,50.38
2022-08-17T17:48:07.710Z,51.09
2022-08-17T17:51:07.051Z,51.69
2022-08-17T17:54:01.961Z,51.43
2022-08-17T17:56:58.586Z,51.84
2022-08-17T17:59:55.421Z,52.34
2022-08-17T18:02:56.486Z,52.68
2022-08-17T18:05:58.179Z,52.92
2022-08-17T18:09:02.841Z,52.88
2022-08-17T18:12:08.969Z,53.15
2022-08-17T18:15:11.278Z,54.26
2022-08-17T18:18:22.546Z,55.12
2022-08-17T18:21:16.844Z,55.27
2022-08-17T18:24:08.829Z,55.95
2022-08-17T18:26:59.235Z,56.62
2022-08-17T18:29:48.646Z,57.57
2022-08-17T18:32:41.294Z,59.45
2022-08-17T18:35:35.115Z,59.86
2022-08-17T18:38:28.752Z,60.15
2022-08-17T18:41:26.071Z,59.95
2022-08-17T18:44:25.780Z,61.21
2022-08-17T18:47:16.471Z,60.62
2022-08-17T18:50:23.653Z,60.22
2022-08-17T18:53:26.545Z,60.75
2022-08-17T18:56:31.279Z,60.63
2022-08-17T18:59:27.928Z,61.65
2022-08-17T19:02:44.758Z,61.44
2022-08-17T19:05:37.814Z,62.10
2022-08-17T19:08:34.395Z,61.77
2022-08-17T19:11:28.233Z,62.50
2022-08-17T19:14:20.115Z,61.66
2022-08-17T19:17:12.479Z,63.19
2022-08-17T19:20:05.750Z,63.37
2022-08-17T19:23:04.782Z,63.50
2022-08-17T19:25:55.634Z,64.87
2022-08-17T19:28:50.424Z,66.17
2022-08-17T19:31:39.928Z,65.98
2022-08-17T19:34:33.984Z,66.13
2022-08-17T19:37:33.916Z,67.29
2022-08-17T19:40:52.492Z,67.26
2022-08-17T19:43:55.427Z,69.32
2022-08-17T19:47:00.893Z,70.97
2022-08-17T19:50:01.066Z,71.83
2022-08-17T19:52:57.883Z,71.52
2022-08-17T19:55:54.784Z,71.64
2022-08-17T19:58:53.441Z,71.75
2022-08-17T20:01:50.100Z,71.49
2022-08-17T20:04:43.613Z,72.81
2022-08-17T20:07:43.129Z,74.05
2022-08-17T20:10:39.610Z,74.98
2022-08-17T20:13:41.843Z,73.92
2022-08-17T20:16:30.316Z,74.96
2022-08-17T20:19:25.102Z,75.08
2022-08-17T20:22:21.919Z,74.37
2022-08-17T20:25:17.106Z,73.72
2022-08-17T20:28:24.705Z,73.43
2022-08-17T20:31:41.394Z,76.12
2022-08-17T20:34:38.080Z,77.62
2022-08-17T20:37:31.722Z,78.53
2022-08-17T20:40:29.922Z,79.43
2022-08-17T20:43:46.477Z,79.95
2022-08-17T20:46:56.357Z,80.92
2022-08-17T20:49:55.765Z,81.61
2022-08-17T20:52:51.690Z,81.79
2022-08-17T20:55:54.691Z,82.83
2022-08-17T20:58:47.682Z,83.59
2022-08-17T21:01:39.507Z,84.66
2022-08-17T21:05:00.091Z,83.98
2022-08-17T21:07:57.885Z,83.70
2022-08-17T21:10:47.853Z,82.52
2022-08-17T21:14:01.793Z,82.89
2022-08-17T21:17:06.714Z,82.96
2022-08-17T21:20:17.152Z,83.93
2022-08-17T21:23:20.672Z,85.29
2022-08-17T21:26:23.636Z,84.17
2022-08-17T21:29:31.358Z,84.54
2022-08-17T21:32:29.158Z,85.33
2022-08-17T21:35:28.351Z,85.47
2022-08-17T21:38:20.720Z,86.75
2022-08-17T21:41:20.023Z,86.76
2022-08-17T21:44:22.019Z,88.15
2022-08-17T21:47:19.290Z,89.71
2022-08-17T21:50:18.593Z,89.48
2022-08-17T21:53:08.716Z,89.40
2022-08-17T21:55:58.108Z,89.23
2022-08-17T21:58:48.563Z,88.90
2022-08-17T22:01:39.900Z,89.34
2022-08-17T22:04:31.122Z,88.74
2022-08-17T22:07:35.951Z,87.39
2022-08-17T22:10:34.522Z,86.81
2022-08-17T22:13:29.726Z,87.87
2022-08-17T22:16:29.382Z,87.94
2022-08-17T22:19:18.720Z,88.38
2022-08-17T22:22:09.659Z,88.26
2022-08-17T22:24:59.883Z,87.63
2022-08-17T22:27:52.049Z,88.46
2022-08-17T22:30:43.175Z,87.66
2022-08-17T22:33:39.586Z,88.32
2022-08-17T22:36:29.655Z,89.56
2022-08-17T22:39:41.606Z,91.11
2022-08-17T22:42:29.687Z,91.83
2022-08-17T22:45:18.008Z,91.91
2022-08-17T22:48:07.472Z,90.33
2022-08-17T22:51:12.650Z,89.72
2022-08-17T22:54:21.739Z,89.15
2022-08-17T22:57:32.229Z,89.43
2022-08-17T23:00:38.344Z,91.42
2022-08-17T23:03:28.167Z,91.21
2022-08-17T23:06:16.271Z,90.36
2022-08-17T23:09:06.863Z,91.27
2022-08-17T23:11:58.491Z,91.54
2022-08-17T23:14:49.304Z,91.88
2022-08-17T23:17:38.809Z,93.72
2022-08-17T23:20:28.178Z,93.63
2022-08-17T23:23:18.743Z,93.59
2022-08-17T23:26:11.287Z,93.46
2022-08-17T23:28:59.964Z,87.52
2022-08-17T23:31:49.154Z,83.24
2022-08-17T23:34:38.313Z,81.64
2022-08-17T23:37:28.360Z,81.37
2022-08-17T23:40:16.635Z,80.87
2022-08-17T23:43:11.425Z,80.96
2022-08-17T23:46:13.042Z,81.59
2022-08-17T23:49:01.176Z,81.65
2022-08-17T23:51:50.257Z,83.05
2022-08-17T23:54:43.574Z,84.78
2022-08-17T23:57:33.693Z,85.71
